Time;durP1;ratioP1;P1;durP2;ratioP2;P2;SDS_P1;SDS_P2;PMS_P1;PMS_P2;Temp;Humidity;BMP_temperature;BMP_pressure;BME280_temperature;BME280_humidity;BME280_pressure;Samples;Min_cycle;Max_cycle;Signal;HPM_P1;HPM_P2
2022/07/28 00:02:25;;;;;;;0.60;0.60;;;24.60;67.10;;;;;;5090260;27;43856;-70
2022/07/28 00:04:53;;;;;;;0.70;0.70;;;24.70;67.50;;;;;;5090369;27;43973;-70
2022/07/28 00:07:21;;;;;;;0.63;0.63;;;24.80;66.20;;;;;;5090162;27;43933;-70
2022/07/28 00:09:49;;;;;;;0.70;0.70;;;24.90;65.90;;;;;;5072475;27;43396;-70
2022/07/28 00:12:17;;;;;;;0.70;0.70;;;25.00;65.50;;;;;;5089902;27;43941;-70
2022/07/28 00:14:45;;;;;;;0.90;0.90;;;25.00;65.60;;;;;;5089805;27;43937;-69
2022/07/28 00:17:14;;;;;;;0.80;0.80;;;25.00;66.20;;;;;;5090193;27;43959;-70
2022/07/28 00:19:42;;;;;;;0.77;0.77;;;24.90;65.80;;;;;;5090529;27;43353;-70
2022/07/28 00:22:10;;;;;;;0.63;0.63;;;24.90;66.20;;;;;;5089803;27;43889;-69
2022/07/28 00:24:38;;;;;;;0.73;0.73;;;24.80;66.00;;;;;;5090130;27;43420;-71
2022/07/28 00:27:06;;;;;;;0.70;0.70;;;24.80;65.90;;;;;;5071597;27;43452;-70
2022/07/28 00:29:34;;;;;;;0.70;0.70;;;24.70;66.10;;;;;;5072170;27;44009;-71
2022/07/28 00:32:19;;;;;;;0.70;0.70;;;24.70;66.70;;;;;;5071178;28;44123;-70
2022/07/28 00:34:47;;;;;;;0.70;0.70;;;24.70;66.70;;;;;;5089783;27;43943;-70
2022/07/28 00:37:15;;;;;;;0.67;0.67;;;24.70;66.40;;;;;;5089729;27;43869;-70
2022/07/28 00:39:43;;;;;;;0.80;0.80;;;24.60;66.40;;;;;;5090215;27;43904;-70
2022/07/28 00:42:11;;;;;;;0.60;0.60;;;24.60;67.20;;;;;;5089012;27;44037;-70
2022/07/28 00:44:40;;;;;;;0.70;0.70;;;24.60;67.10;;;;;;5089998;27;43412;-70
2022/07/28 00:47:10;;;;;;;0.70;0.70;;;24.70;66.70;;;;;;5071210;28;43909;-70
2022/07/28 00:49:40;;;;;;;0.90;0.90;;;24.80;66.20;;;;;;5090401;27;43983;-70
2022/07/28 00:52:08;;;;;;;0.70;0.70;;;24.90;65.80;;;;;;5076223;27;43989;-70
2022/07/28 00:54:36;;;;;;;0.80;0.80;;;25.00;65.70;;;;;;5110202;27;43395;-70
2022/07/28 00:57:04;;;;;;;0.60;0.60;;;25.00;66.40;;;;;;5109921;27;44002;-70
2022/07/28 00:59:32;;;;;;;0.70;0.70;;;24.90;65.60;;;;;;5110437;27;43991;-70
2022/07/28 01:02:01;;;;;;;0.60;0.60;;;24.80;66.20;;;;;;5110457;27;44018;-71
2022/07/28 01:04:29;;;;;;;0.90;0.90;;;24.80;66.20;;;;;;5109828;27;44014;-70
2022/07/28 01:07:07;;;;;;;0.80;0.80;;;24.80;66.10;;;;;;5109754;27;43898;-70
2022/07/28 01:09:58;;;;;;;0.90;0.90;;;24.70;66.70;;;;;;5083440;27;44074;-70
2022/07/28 01:12:33;;;;;;;0.67;0.67;;;24.70;66.90;;;;;;5084975;27;46853;-71
2022/07/28 01:15:03;;;;;;;0.80;0.80;;;24.70;66.80;;;;;;5109693;27;43484;-70
2022/07/28 01:17:35;;;;;;;0.80;0.80;;;24.60;66.70;;;;;;5114833;27;43380;-71
2022/07/28 01:20:06;;;;;;;0.70;0.70;;;24.60;66.30;;;;;;5110755;27;43367;-71
2022/07/28 01:22:39;;;;;;;0.80;0.80;;;24.60;67.10;;;;;;5109663;27;44770;-71
2022/07/28 01:25:13;;;;;;;0.60;0.60;;;24.60;67.30;;;;;;5103368;27;43939;-71
2022/07/28 01:27:50;;;;;;;0.60;0.60;;;24.60;66.70;;;;;;5109695;27;44009;-71
2022/07/28 01:30:35;;;;;;;0.70;0.70;;;24.70;66.40;;;;;;5110015;27;43393;-69
2022/07/28 01:33:06;;;;;;;0.60;0.60;;;24.80;65.90;;;;;;5109399;27;43959;-69
2022/07/28 01:35:39;;;;;;;0.50;0.50;;;24.90;65.70;;;;;;5109480;27;43885;-71
2022/07/28 01:38:07;;;;;;;0.70;0.70;;;24.90;65.80;;;;;;5090888;27;44060;-69
2022/07/28 01:40:35;;;;;;;0.80;0.80;;;24.90;65.80;;;;;;5110074;27;43908;-70
2022/07/28 01:43:06;;;;;;;0.80;0.80;;;24.80;66.20;;;;;;5109039;27;44027;-71
2022/07/28 01:45:37;;;;;;;0.77;0.77;;;24.80;66.30;;;;;;5090813;27;44704;-70
2022/07/28 01:48:05;;;;;;;0.60;0.60;;;24.80;66.20;;;;;;5128786;27;43397;-71
2022/07/28 01:50:33;;;;;;;0.80;0.80;;;24.70;66.00;;;;;;5087506;27;43900;-69
2022/07/28 01:53:01;;;;;;;0.70;0.70;;;24.60;66.50;;;;;;5102377;27;43764;-70
2022/07/28 01:55:29;;;;;;;0.67;0.67;;;24.60;67.00;;;;;;5102495;27;43996;-70
2022/07/28 01:57:57;;;;;;;0.80;0.80;;;24.70;66.60;;;;;;5102398;27;43901;-71
2022/07/28 02:00:25;;;;;;;0.50;0.50;;;24.70;66.10;;;;;;5084123;27;43904;-70
2022/07/28 02:02:56;;;;;;;0.80;0.80;;;24.80;65.60;;;;;;5102631;27;43994;-71
2022/07/28 02:05:24;;;;;;;0.60;0.60;;;24.90;65.70;;;;;;5108930;27;43885;-70
2022/07/28 02:07:52;;;;;;;0.80;0.80;;;24.90;65.80;;;;;;5108991;27;43920;-71
2022/07/28 02:10:20;;;;;;;0.60;0.60;;;24.90;65.80;;;;;;5090691;27;44129;-71
2022/07/28 02:12:48;;;;;;;0.80;0.80;;;24.80;66.20;;;;;;5108929;27;43894;-70
2022/07/28 02:15:16;;;;;;;0.70;0.70;;;24.70;66.20;;;;;;5089872;27;44682;-71
2022/07/28 02:17:45;;;;;;;0.77;0.77;;;24.70;66.20;;;;;;5108954;27;44012;-70
2022/07/28 02:20:15;;;;;;;0.70;0.70;;;24.70;66.10;;;;;;5109303;27;43356;-70
2022/07/28 02:22:43;;;;;;;0.80;0.80;;;24.60;66.50;;;;;;5108347;27;44225;-70
2022/07/28 02:25:19;;;;;;;0.70;0.70;;;24.60;67.00;;;;;;5108517;27;43877;-70
2022/07/28 02:27:48;;;;;;;2.00;0.70;;;24.50;66.70;;;;;;5108801;27;43383;-70
2022/07/28 02:30:16;;;;;;;0.53;0.53;;;24.50;66.50;;;;;;5109092;27;43932;-71
2022/07/28 02:32:47;;;;;;;0.70;0.70;;;24.50;66.30;;;;;;5108611;27;44345;-71
2022/07/28 02:35:18;;;;;;;0.70;0.70;;;24.50;67.30;;;;;;5108200;27;43992;-70
2022/07/28 02:37:52;;;;;;;0.70;0.70;;;24.50;67.20;;;;;;5108457;27;44069;-70
2022/07/28 02:40:20;;;;;;;0.70;0.70;;;24.60;66.70;;;;;;5108650;27;44178;-71
2022/07/28 02:42:48;;;;;;;0.70;0.70;;;24.70;66.30;;;;;;5108317;27;43960;-69
2022/07/28 02:45:17;;;;;;;0.70;0.70;;;24.80;65.70;;;;;;5108393;27;43920;-70
2022/07/28 02:47:46;;;;;;;0.87;0.87;;;24.80;65.60;;;;;;5125857;27;44287;-69
2022/07/28 02:50:16;;;;;;;0.70;0.70;;;24.90;65.80;;;;;;5128364;27;43988;-70
2022/07/28 02:52:44;;;;;;;0.70;0.70;;;24.80;65.70;;;;;;5128069;27;43934;-70
2022/07/28 02:55:14;;;;;;;0.73;0.70;;;24.70;66.10;;;;;;5128256;27;43385;-71
2022/07/28 02:57:42;;;;;;;0.70;0.70;;;24.70;66.10;;;;;;5128243;27;43382;-70
2022/07/28 03:00:11;;;;;;;0.80;0.80;;;24.70;66.20;;;;;;5127292;27;44003;-69
2022/07/28 03:02:40;;;;;;;0.70;0.70;;;24.60;65.90;;;;;;5128289;27;43760;-70
2022/07/28 03:05:08;;;;;;;0.70;0.70;;;24.60;66.60;;;;;;5109389;27;44730;-70
2022/07/28 03:07:40;;;;;;;2.47;0.70;;;24.60;66.80;;;;;;5109533;27;43393;-71
2022/07/28 03:10:19;;;;;;;0.90;0.90;;;24.50;66.60;;;;;;5108486;27;43967;-71
2022/07/28 03:13:01;;;;;;;0.70;0.70;;;24.50;66.30;;;;;;5103556;27;44646;-71
2022/07/28 03:15:29;;;;;;;0.63;0.63;;;24.50;66.90;;;;;;5089031;27;45942;-70
2022/07/28 03:17:57;;;;;;;0.80;0.80;;;24.50;67.20;;;;;;5108144;27;43994;-70
2022/07/28 03:20:25;;;;;;;0.60;0.60;;;24.50;66.90;;;;;;5108400;27;43875;-71
2022/07/28 03:22:55;;;;;;;0.77;0.70;;;24.60;66.40;;;;;;5107838;27;43988;-70
2022/07/28 03:25:24;;;;;;;0.70;0.70;;;24.70;66.00;;;;;;5108106;27;43959;-72
2022/07/28 03:27:52;;;;;;;0.50;0.50;;;24.80;65.40;;;;;;5107760;27;44042;-70
2022/07/28 03:30:25;;;;;;;0.70;0.70;;;24.90;65.20;;;;;;5108529;27;43969;-71
2022/07/28 03:32:54;;;;;;;0.60;0.60;;;24.90;65.50;;;;;;5107765;27;43782;-70
2022/07/28 03:35:22;;;;;;;0.70;0.70;;;24.80;65.00;;;;;;5089097;27;44482;-70
2022/07/28 03:37:52;;;;;;;0.73;0.73;;;24.70;65.80;;;;;;5107766;27;43896;-70
2022/07/28 03:40:22;;;;;;;0.60;0.60;;;24.70;65.80;;;;;;5108132;27;43384;-70
2022/07/28 03:42:50;;;;;;;0.57;0.57;;;24.70;65.80;;;;;;5107322;27;43756;-71
2022/07/28 03:45:18;;;;;;;0.70;0.70;;;24.60;66.30;;;;;;5107792;27;43922;-70
2022/07/28 03:47:54;;;;;;;0.70;0.70;;;24.50;66.40;;;;;;5107851;27;43943;-71
2022/07/28 03:50:22;;;;;;;0.80;0.80;;;24.50;66.30;;;;;;5108217;27;43508;-70
2022/07/28 03:52:50;;;;;;;0.70;0.70;;;24.50;66.10;;;;;;5107454;27;44052;-71
2022/07/28 03:55:18;;;;;;;0.70;0.70;;;24.50;65.90;;;;;;5107837;27;43861;-70
2022/07/28 03:57:47;;;;;;;0.70;0.70;;;24.40;66.50;;;;;;5107414;27;43941;-70
2022/07/28 04:00:16;;;;;;;0.67;0.67;;;24.50;67.00;;;;;;5108116;27;43873;-70
2022/07/28 04:02:44;;;;;;;0.70;0.70;;;24.50;67.10;;;;;;5106809;27;43560;-70
2022/07/28 04:05:12;;;;;;;0.70;0.70;;;24.60;65.80;;;;;;5107587;27;44056;-71
2022/07/28 04:07:40;;;;;;;0.63;0.63;;;24.70;65.10;;;;;;5107798;27;43994;-70
2022/07/28 04:10:10;;;;;;;0.80;0.80;;;24.80;65.10;;;;;;5108235;27;44068;-71
2022/07/28 04:13:00;;;;;;;0.60;0.60;;;24.80;65.30;;;;;;5110332;27;43911;-70
2022/07/28 04:15:28;;;;;;;0.80;0.80;;;24.80;65.20;;;;;;5110833;27;43888;-70
2022/07/28 04:17:56;;;;;;;0.63;0.63;;;24.70;65.70;;;;;;5110926;27;44112;-70
2022/07/28 04:20:25;;;;;;;0.90;0.90;;;24.70;65.80;;;;;;5111360;27;43915;-70
2022/07/28 04:22:53;;;;;;;0.90;0.90;;;24.60;65.70;;;;;;5110864;27;44009;-70
2022/07/28 04:25:22;;;;;;;0.70;0.70;;;24.60;65.40;;;;;;5092185;27;45111;-71
2022/07/28 04:27:50;;;;;;;0.60;0.60;;;24.50;65.70;;;;;;5110639;27;43908;-70
2022/07/28 04:30:20;;;;;;;0.70;0.70;;;24.50;66.40;;;;;;5111279;27;44120;-71
2022/07/28 04:32:49;;;;;;;0.60;0.60;;;24.50;66.20;;;;;;5126808;27;43935;-71
2022/07/28 04:35:18;;;;;;;0.80;0.80;;;24.50;65.90;;;;;;5111783;27;45163;-70
2022/07/28 04:37:47;;;;;;;0.83;0.83;;;24.40;65.70;;;;;;5130596;27;43959;-70
2022/07/28 04:40:15;;;;;;;0.63;0.63;;;24.40;66.70;;;;;;5130853;27;44354;-71
2022/07/28 04:42:43;;;;;;;0.83;0.83;;;24.40;66.70;;;;;;5129861;27;43992;-71
2022/07/28 04:45:11;;;;;;;0.83;0.83;;;24.50;66.30;;;;;;5130448;27;43927;-70
2022/07/28 04:47:40;;;;;;;0.73;0.73;;;24.60;65.80;;;;;;5130653;27;44041;-71
2022/07/28 04:50:09;;;;;;;0.60;0.60;;;24.70;65.20;;;;;;5130937;27;43959;-71
2022/07/28 04:52:38;;;;;;;0.70;0.70;;;24.80;64.80;;;;;;5130303;27;44023;-71
2022/07/28 04:55:07;;;;;;;0.60;0.60;;;24.80;65.00;;;;;;5130508;27;43920;-70
2022/07/28 04:57:35;;;;;;;0.70;0.70;;;24.80;65.00;;;;;;5130228;27;44025;-70
2022/07/28 05:00:10;;;;;;;0.70;0.70;;;24.80;65.30;;;;;;5130542;27;43970;-71
2022/07/28 05:02:41;;;;;;;0.60;0.60;;;24.70;65.50;;;;;;5130311;27;44791;-70
2022/07/28 05:05:10;;;;;;;0.53;0.53;;;24.70;65.60;;;;;;5111951;27;43947;-70
2022/07/28 05:07:38;;;;;;;0.80;0.80;;;24.60;65.20;;;;;;5110543;27;43909;-70
2022/07/28 05:10:07;;;;;;;0.77;0.77;;;24.50;65.50;;;;;;5110674;27;44083;-72
2022/07/28 05:12:35;;;;;;;0.50;0.50;;;24.50;66.20;;;;;;5128678;27;45406;-70
2022/07/28 05:15:03;;;;;;;0.80;0.80;;;24.50;65.90;;;;;;5129927;27;43923;-70
2022/07/28 05:17:31;;;;;;;0.70;0.70;;;24.60;65.50;;;;;;5130074;27;43932;-71
2022/07/28 05:20:00;;;;;;;0.60;0.60;;;24.70;65.00;;;;;;5130258;27;44076;-70
2022/07/28 05:22:43;;;;;;;0.73;0.73;;;24.80;65.10;;;;;;5123671;27;44049;-70
2022/07/28 05:25:17;;;;;;;0.67;0.67;;;24.80;65.00;;;;;;5103888;27;43961;-70
2022/07/28 05:27:45;;;;;;;0.77;0.77;;;24.70;64.80;;;;;;5110028;27;43924;-70
2022/07/28 05:30:14;;;;;;;1.27;0.70;;;24.60;65.40;;;;;;5091683;27;44001;-71
2022/07/28 05:32:42;;;;;;;0.70;0.70;;;24.60;65.60;;;;;;5110044;27;43882;-71
2022/07/28 05:35:11;;;;;;;0.80;0.77;;;24.60;65.50;;;;;;5091390;27;46371;-70
2022/07/28 05:37:39;;;;;;;0.67;0.67;;;24.50;65.30;;;;;;5110143;27;44001;-70
2022/07/28 05:40:10;;;;;;;0.90;0.90;;;24.50;65.70;;;;;;5110119;27;43944;-71
2022/07/28 05:42:39;;;;;;;0.67;0.60;;;24.40;66.10;;;;;;5109441;27;43905;-71
2022/07/28 05:45:09;;;;;;;0.70;0.70;;;24.40;66.00;;;;;;5109897;27;43902;-70
2022/07/28 05:47:45;;;;;;;0.80;0.80;;;24.40;65.70;;;;;;5112999;27;43905;-70
2022/07/28 05:50:14;;;;;;;0.77;0.77;;;24.40;65.80;;;;;;5112837;27;43452;-70
2022/07/28 05:52:43;;;;;;;0.50;0.50;;;24.40;66.60;;;;;;5109547;27;43619;-69
2022/07/28 05:55:10;;;;;;;0.57;0.57;;;24.40;66.40;;;;;;5109647;27;44119;-70
2022/07/28 05:57:39;;;;;;;0.70;0.70;;;24.40;65.70;;;;;;5091003;27;43967;-70
2022/07/28 06:00:08;;;;;;;0.73;0.73;;;24.50;65.30;;;;;;5127211;27;43939;-72
2022/07/28 06:02:39;;;;;;;0.70;0.70;;;24.70;64.90;;;;;;5129640;27;43892;-71
2022/07/28 06:05:07;;;;;;;0.70;0.70;;;24.70;64.80;;;;;;5129342;27;44075;-70
2022/07/28 06:07:37;;;;;;;0.67;0.67;;;24.70;64.90;;;;;;5129465;27;43900;-71
2022/07/28 06:10:11;;;;;;;0.70;0.70;;;24.70;64.90;;;;;;5124176;27;43937;-70
2022/07/28 06:12:40;;;;;;;0.70;0.70;;;24.60;65.40;;;;;;5090758;27;45749;-70
2022/07/28 06:15:12;;;;;;;0.60;0.60;;;24.60;65.40;;;;;;5121943;27;43955;-70
2022/07/28 06:17:40;;;;;;;0.80;0.80;;;24.50;65.30;;;;;;5129505;27;43946;-71
2022/07/28 06:20:08;;;;;;;0.63;0.63;;;24.50;65.10;;;;;;5129679;27;43916;-71
2022/07/28 06:22:45;;;;;;;0.70;0.70;;;24.40;66.00;;;;;;5128702;27;45113;-71
2022/07/28 06:25:14;;;;;;;0.70;0.70;;;24.40;66.10;;;;;;5128929;27;43851;-71
2022/07/28 06:27:42;;;;;;;0.60;0.60;;;24.40;66.00;;;;;;5128920;27;44001;-71
2022/07/28 06:30:11;;;;;;;0.60;0.60;;;24.40;65.50;;;;;;5128907;27;43537;-71
2022/07/28 06:32:39;;;;;;;0.80;0.80;;;24.30;66.40;;;;;;5128220;27;43953;-70
2022/07/28 06:35:08;;;;;;;0.80;0.80;;;24.30;66.60;;;;;;5109038;27;43960;-70
2022/07/28 06:37:36;;;;;;;0.77;0.77;;;24.40;66.10;;;;;;5090226;27;44044;-70
2022/07/28 06:40:07;;;;;;;0.60;0.60;;;24.50;65.70;;;;;;5108774;27;44002;-71
2022/07/28 06:42:35;;;;;;;0.60;0.60;;;24.60;65.10;;;;;;5108599;27;43950;-70
2022/07/28 06:45:04;;;;;;;0.70;0.70;;;24.70;64.70;;;;;;5108369;27;43912;-70
2022/07/28 06:47:32;;;;;;;0.50;0.50;;;24.70;64.80;;;;;;5108782;27;43919;-70
2022/07/28 06:50:00;;;;;;;0.60;0.60;;;24.70;64.90;;;;;;5108882;27;43900;-71
2022/07/28 06:52:28;;;;;;;0.90;0.90;;;24.60;65.30;;;;;;5123400;27;43860;-70
2022/07/28 06:54:56;;;;;;;0.70;0.70;;;24.60;65.50;;;;;;5128279;27;44000;-70
2022/07/28 06:57:27;;;;;;;0.90;0.90;;;24.50;65.40;;;;;;5128293;27;44325;-72
2022/07/28 07:00:01;;;;;;;1.00;1.00;;;24.50;65.30;;;;;;5128724;27;44034;-70
2022/07/28 07:02:29;;;;;;;0.70;0.70;;;24.40;65.90;;;;;;5128155;27;43935;-70
2022/07/28 07:04:57;;;;;;;0.80;0.80;;;24.40;66.10;;;;;;5128098;27;43872;-70
2022/07/28 07:07:25;;;;;;;0.80;0.80;;;24.40;66.00;;;;;;5125452;27;43831;-71
2022/07/28 07:09:53;;;;;;;0.90;0.90;;;24.40;65.70;;;;;;5108109;27;43927;-71
2022/07/28 07:12:21;;;;;;;0.70;0.70;;;24.30;65.70;;;;;;5107876;27;43937;-70
2022/07/28 07:14:51;;;;;;;0.90;0.90;;;24.30;66.70;;;;;;5108218;27;44004;-70
2022/07/28 07:17:19;;;;;;;0.80;0.80;;;24.30;66.40;;;;;;5108252;27;43900;-70
2022/07/28 07:19:47;;;;;;;0.90;0.90;;;24.40;65.70;;;;;;5108708;27;44042;-71
2022/07/28 07:22:15;;;;;;;0.80;0.80;;;24.50;65.30;;;;;;5111490;27;45208;-71
2022/07/28 07:24:43;;;;;;;0.80;0.80;;;24.60;64.60;;;;;;5124413;27;43807;-71
2022/07/28 07:27:11;;;;;;;0.73;0.73;;;24.70;64.60;;;;;;5125007;27;43967;-69
2022/07/28 07:29:39;;;;;;;0.90;0.90;;;24.70;64.70;;;;;;5128524;27;43397;-70
2022/07/28 07:32:09;;;;;;;0.57;0.57;;;24.70;64.80;;;;;;5109112;27;45147;-70
2022/07/28 07:34:39;;;;;;;0.80;0.80;;;24.60;65.20;;;;;;5110999;27;44042;-70
2022/07/28 07:37:10;;;;;;;0.77;0.77;;;24.50;65.20;;;;;;5108140;27;43937;-70
2022/07/28 07:39:39;;;;;;;0.70;0.70;;;24.50;65.30;;;;;;5108577;27;43837;-70
2022/07/28 07:42:07;;;;;;;1.00;0.90;;;24.40;65.10;;;;;;5107632;27;43978;-70
2022/07/28 07:44:35;;;;;;;0.60;0.60;;;24.40;65.80;;;;;;5093724;27;44672;-71
2022/07/28 07:47:03;;;;;;;0.60;0.60;;;24.40;66.10;;;;;;5125461;27;43360;-70
2022/07/28 07:49:32;;;;;;;0.80;0.80;;;24.40;65.50;;;;;;5111958;27;43443;-70
2022/07/28 07:52:12;;;;;;;0.70;0.70;;;24.50;65.00;;;;;;5112033;27;45689;-70
2022/07/28 07:54:41;;;;;;;0.80;0.80;;;24.60;64.60;;;;;;5131227;27;43999;-70
2022/07/28 07:57:08;;;;;;;0.60;0.60;;;24.60;64.80;;;;;;5111689;27;43959;-69
2022/07/28 07:59:36;;;;;;;0.90;0.90;;;24.60;64.80;;;;;;5118398;27;43464;-71
2022/07/28 08:02:05;;;;;;;0.60;0.60;;;24.50;64.60;;;;;;5130675;27;44026;-71
2022/07/28 08:04:34;;;;;;;0.90;0.90;;;24.50;65.60;;;;;;5131260;27;43907;-70
2022/07/28 08:07:05;;;;;;;1.03;0.80;;;24.50;65.60;;;;;;5124169;27;43859;-70
2022/07/28 08:09:33;;;;;;;0.80;0.80;;;24.40;65.30;;;;;;5111560;27;43952;-71
2022/07/28 08:12:01;;;;;;;0.80;0.80;;;24.40;65.00;;;;;;5111054;27;44110;-70
2022/07/28 08:14:29;;;;;;;0.63;0.63;;;24.30;65.80;;;;;;5092247;27;45320;-70
2022/07/28 08:16:58;;;;;;;0.70;0.70;;;24.30;66.10;;;;;;5092544;27;43970;-70
2022/07/28 08:19:26;;;;;;;0.80;0.80;;;24.30;66.00;;;;;;5131244;27;44096;-70
2022/07/28 08:21:55;;;;;;;0.80;0.80;;;24.30;65.50;;;;;;5130535;27;43900;-71
2022/07/28 08:24:23;;;;;;;0.80;0.80;;;24.20;65.50;;;;;;5130754;27;43291;-70
2022/07/28 08:27:01;;;;;;;0.80;0.80;;;24.20;66.60;;;;;;5131017;27;44018;-70
2022/07/28 08:29:29;;;;;;;0.70;0.70;;;24.30;66.30;;;;;;5130974;27;44020;-70
2022/07/28 08:31:57;;;;;;;0.80;0.80;;;24.30;65.60;;;;;;5130397;27;43555;-70
2022/07/28 08:34:25;;;;;;;1.00;1.00;;;24.40;65.10;;;;;;5129069;27;43996;-71
2022/07/28 08:37:02;;;;;;;0.70;0.70;;;24.60;65.50;;;;;;5092047;27;43408;-70
2022/07/28 08:39:30;;;;;;;0.70;0.70;;;24.60;64.70;;;;;;5127747;27;43982;-70
2022/07/28 08:42:01;;;;;;;0.73;0.73;;;24.60;64.80;;;;;;5129540;27;44797;-69
2022/07/28 08:44:33;;;;;;;0.70;0.70;;;24.50;64.80;;;;;;5123772;27;44026;-70
2022/07/28 08:47:01;;;;;;;0.80;0.80;;;24.50;65.50;;;;;;5107585;27;43924;-70
2022/07/28 08:49:29;;;;;;;0.70;0.70;;;24.40;65.40;;;;;;5110721;27;43518;-70
2022/07/28 08:51:57;;;;;;;1.00;1.00;;;24.40;65.30;;;;;;5110078;27;43951;-70
2022/07/28 08:54:27;;;;;;;0.60;0.60;;;24.30;65.00;;;;;;5110423;27;43368;-70
2022/07/28 08:56:55;;;;;;;0.80;0.80;;;24.30;66.30;;;;;;5110232;27;43378;-72
2022/07/28 08:59:23;;;;;;;0.90;0.90;;;24.30;66.10;;;;;;5109613;27;43923;-70
2022/07/28 09:01:52;;;;;;;0.80;0.80;;;24.40;65.60;;;;;;5110058;27;44708;-71
2022/07/28 09:04:24;;;;;;;0.90;0.90;;;24.40;65.00;;;;;;5110194;27;43939;-71
2022/07/28 09:06:52;;;;;;;1.00;1.00;;;24.50;65.00;;;;;;5091581;27;43974;-70
2022/07/28 09:09:21;;;;;;;0.73;0.73;;;24.50;65.00;;;;;;5110712;27;43995;-69
2022/07/28 09:11:50;;;;;;;1.33;0.80;;;24.50;64.90;;;;;;5110305;27;44363;-70
2022/07/28 09:14:18;;;;;;;0.73;0.73;;;24.40;65.00;;;;;;5110040;27;43399;-69
2022/07/28 09:16:46;;;;;;;0.90;0.90;;;24.40;65.60;;;;;;5115850;27;43986;-70
2022/07/28 09:19:14;;;;;;;0.83;0.83;;;24.40;65.60;;;;;;5130056;27;44015;-72
2022/07/28 09:21:42;;;;;;;0.77;0.77;;;24.30;65.30;;;;;;5129823;27;44046;-71
2022/07/28 09:24:10;;;;;;;0.80;0.80;;;24.30;65.30;;;;;;5129751;27;44037;-69
2022/07/28 09:26:42;;;;;;;0.80;0.80;;;24.20;67.10;;;;;;5130207;27;43887;-70
2022/07/28 09:29:12;;;;;;;0.80;0.80;;;24.20;66.20;;;;;;5111650;27;44078;-71
2022/07/28 09:31:50;;;;;;;0.80;0.80;;;24.20;65.60;;;;;;5110984;27;45920;-70
2022/07/28 09:34:23;;;;;;;0.80;0.80;;;24.20;65.50;;;;;;5129577;27;43951;-70
2022/07/28 09:36:52;;;;;;;1.10;1.10;;;24.10;66.70;;;;;;5129675;27;43398;-70
2022/07/28 09:39:31;;;;;;;0.80;0.80;;;24.20;66.60;;;;;;5114858;27;43385;-70
2022/07/28 09:41:59;;;;;;;0.80;0.80;;;24.30;66.30;;;;;;5108800;27;43927;-69
2022/07/28 09:44:28;;;;;;;0.80;0.80;;;24.40;65.80;;;;;;5109327;27;43911;-70
2022/07/28 09:46:56;;;;;;;1.00;1.00;;;24.50;65.40;;;;;;5119860;27;43856;-70
2022/07/28 09:49:40;;;;;;;0.87;0.87;;;24.50;65.20;;;;;;5129714;27;43989;-71
2022/07/28 09:52:09;;;;;;;0.70;0.70;;;24.50;65.10;;;;;;5110594;27;45678;-71
2022/07/28 09:54:37;;;;;;;0.90;0.90;;;24.50;65.00;;;;;;5129301;27;44044;-72
2022/07/28 09:57:10;;;;;;;1.43;1.33;;;24.50;65.90;;;;;;5129614;27;43961;-71
2022/07/28 09:59:44;;;;;;;0.80;0.80;;;24.40;65.80;;;;;;5103297;27;43885;-70
2022/07/28 10:02:23;;;;;;;0.80;0.80;;;24.40;65.40;;;;;;5110521;27;43848;-70
2022/07/28 10:04:53;;;;;;;0.83;0.83;;;24.30;65.20;;;;;;5128969;27;43369;-70
2022/07/28 10:07:21;;;;;;;0.80;0.80;;;24.30;66.60;;;;;;5129112;27;43445;-70
2022/07/28 10:09:56;;;;;;;0.80;0.80;;;24.30;66.50;;;;;;5128727;27;43862;-70
2022/07/28 10:12:24;;;;;;;0.80;0.80;;;24.30;66.10;;;;;;5128972;27;44042;-71
2022/07/28 10:14:54;;;;;;;0.90;0.90;;;24.20;65.60;;;;;;5128874;27;43940;-70
2022/07/28 10:17:24;;;;;;;0.77;0.77;;;24.20;66.90;;;;;;5128936;27;44037;-69
2022/07/28 10:19:53;;;;;;;0.80;0.80;;;24.20;67.10;;;;;;5129104;27;43986;-70
2022/07/28 10:22:22;;;;;;;1.00;1.00;;;24.30;66.70;;;;;;5128419;27;43972;-71
2022/07/28 10:24:51;;;;;;;0.80;0.80;;;24.30;66.20;;;;;;5128657;27;44051;-69
2022/07/28 10:27:20;;;;;;;0.80;0.80;;;24.40;65.90;;;;;;5117438;27;43887;-71
2022/07/28 10:29:50;;;;;;;0.90;0.90;;;24.50;65.70;;;;;;5109408;27;43903;-71
2022/07/28 10:32:19;;;;;;;1.10;0.77;;;24.50;65.60;;;;;;5108596;27;43888;-70
2022/07/28 10:34:50;;;;;;;0.90;0.90;;;24.50;65.30;;;;;;5108613;27;44076;-69
2022/07/28 10:37:20;;;;;;;0.80;0.80;;;24.40;66.00;;;;;;5108632;27;43766;-70
2022/07/28 10:39:49;;;;;;;0.90;0.90;;;24.40;66.20;;;;;;5109089;27;44044;-70
2022/07/28 10:42:17;;;;;;;0.90;0.90;;;24.40;65.80;;;;;;5108066;27;43897;-71
2022/07/28 10:44:45;;;;;;;1.00;1.00;;;24.30;65.50;;;;;;5114521;27;43804;-70
2022/07/28 10:47:13;;;;;;;1.00;1.00;;;24.30;66.50;;;;;;5090378;27;43414;-70
2022/07/28 10:49:48;;;;;;;0.93;0.93;;;24.30;66.80;;;;;;5108978;27;44024;-72
2022/07/28 10:52:17;;;;;;;0.90;0.90;;;24.30;66.20;;;;;;5101749;27;43594;-71
2022/07/28 10:55:09;;;;;;;0.80;0.80;;;24.40;66.20;;;;;;5114632;27;43397;-70
2022/07/28 10:57:41;;;;;;;0.87;0.87;;;24.50;65.90;;;;;;5128518;27;43934;-70
2022/07/28 11:00:12;;;;;;;0.80;0.80;;;24.50;65.60;;;;;;5128953;27;43937;-69
2022/07/28 11:02:50;;;;;;;0.80;0.80;;;24.50;65.40;;;;;;5109365;27;46757;-69
2022/07/28 11:05:30;;;;;;;0.90;0.90;;;24.40;65.20;;;;;;5109325;27;45847;-70
2022/07/28 11:08:00;;;;;;;0.80;0.80;;;24.40;66.10;;;;;;5114033;27;43446;-70
2022/07/28 11:10:28;;;;;;;0.90;0.90;;;24.30;65.80;;;;;;5097890;27;43419;-71
2022/07/28 11:12:57;;;;;;;0.87;0.87;;;24.30;65.40;;;;;;5120364;27;43779;-70
2022/07/28 11:15:26;;;;;;;1.07;1.07;;;24.30;65.40;;;;;;5109048;27;43356;-70
2022/07/28 11:17:58;;;;;;;1.00;1.00;;;24.20;66.60;;;;;;5127968;27;44041;-70
2022/07/28 11:21:03;;;;;;;1.13;1.13;;;24.20;66.50;;;;;;5127685;27;43990;-71
2022/07/28 11:23:40;;;;;;;0.97;0.97;;;24.20;65.80;;;;;;5121002;27;43934;-70
2022/07/28 11:26:47;;;;;;;1.10;1.10;;;24.20;65.80;;;;;;5127717;27;43999;-70
2022/07/28 11:29:19;;;;;;;1.00;1.00;;;24.10;67.10;;;;;;5101498;27;44034;-72
2022/07/28 11:32:06;;;;;;;1.00;1.00;;;24.20;66.90;;;;;;5102518;27;43884;-71
2022/07/28 11:35:06;;;;;;;1.00;1.00;;;24.30;66.50;;;;;;5110314;27;43932;-70
2022/07/28 11:38:09;;;;;;;1.00;1.00;;;24.40;66.10;;;;;;5109148;27;44835;-70
2022/07/28 11:40:40;;;;;;;1.00;1.00;;;24.50;65.70;;;;;;5122154;27;43519;-70
2022/07/28 11:43:30;;;;;;;0.97;0.97;;;24.50;65.50;;;;;;5108285;27;43961;-70
2022/07/28 11:46:38;;;;;;;1.00;1.00;;;24.50;65.20;;;;;;5107788;27;44053;-69
2022/07/28 11:49:23;;;;;;;1.10;1.10;;;24.40;66.00;;;;;;5120931;27;43280;-69
2022/07/28 11:52:19;;;;;;;1.20;1.20;;;24.40;65.90;;;;;;5107696;27;43870;-71
2022/07/28 11:54:52;;;;;;;1.20;1.03;;;24.30;65.50;;;;;;5108097;27;43775;-69
2022/07/28 11:57:24;;;;;;;1.07;1.07;;;24.30;65.40;;;;;;5107669;27;43798;-71
2022/07/28 11:59:54;;;;;;;1.53;1.10;;;24.20;66.70;;;;;;5107536;27;44077;-70
2022/07/28 12:02:24;;;;;;;1.00;1.00;;;24.20;66.50;;;;;;5109632;27;43931;-71
2022/07/28 12:05:02;;;;;;;1.30;1.30;;;24.20;65.90;;;;;;5093466;27;44065;-70
2022/07/28 12:07:35;;;;;;;1.20;1.20;;;24.10;66.00;;;;;;5113337;27;44980;-70
2022/07/28 12:10:31;;;;;;;1.30;1.30;;;24.10;66.90;;;;;;5125078;27;43991;-70
2022/07/28 12:13:26;;;;;;;1.20;1.20;;;24.10;66.90;;;;;;5116370;27;44217;-70
2022/07/28 12:15:54;;;;;;;1.30;1.30;;;24.20;66.10;;;;;;5107779;27;43962;-70
2022/07/28 12:18:22;;;;;;;1.10;1.10;;;24.30;65.70;;;;;;5126101;27;43754;-70
2022/07/28 12:20:53;;;;;;;1.10;1.10;;;24.40;65.20;;;;;;5124265;27;44281;-70
2022/07/28 12:23:32;;;;;;;1.10;1.10;;;24.40;65.40;;;;;;5126812;27;44093;-69
2022/07/28 12:26:13;;;;;;;1.23;1.23;;;24.40;64.90;;;;;;5127442;27;44010;-71
2022/07/28 12:28:49;;;;;;;1.10;1.10;;;24.40;65.20;;;;;;5126933;27;43787;-71
2022/07/28 12:31:17;;;;;;;1.20;1.17;;;24.40;65.80;;;;;;5126965;27;43419;-69
2022/07/28 12:33:45;;;;;;;1.20;1.20;;;24.30;65.80;;;;;;5130148;27;43954;-70
2022/07/28 12:36:17;;;;;;;1.30;1.30;;;24.30;65.20;;;;;;5126379;27;43464;-69
2022/07/28 12:38:45;;;;;;;1.20;1.20;;;24.30;65.20;;;;;;5130423;27;44042;-70
2022/07/28 12:41:14;;;;;;;1.30;1.30;;;24.20;66.60;;;;;;5129729;27;44018;-70
2022/07/28 12:43:50;;;;;;;1.20;1.20;;;24.20;66.60;;;;;;5130589;27;43974;-70
2022/07/28 12:46:22;;;;;;;1.13;1.13;;;24.10;65.90;;;;;;5125981;27;44066;-70
2022/07/28 12:48:55;;;;;;;1.20;1.20;;;24.10;65.40;;;;;;5110485;27;44006;-70
2022/07/28 12:51:36;;;;;;;1.30;1.30;;;24.10;67.00;;;;;;5110397;27;44052;-69
2022/07/28 12:54:05;;;;;;;1.40;1.40;;;24.10;66.90;;;;;;5091930;27;43900;-70
2022/07/28 12:56:44;;;;;;;1.40;1.40;;;24.20;66.40;;;;;;5110688;27;43934;-71
2022/07/28 12:59:13;;;;;;;1.40;1.40;;;24.30;66.80;;;;;;5110208;27;43968;-70
2022/07/28 13:01:48;;;;;;;1.30;1.30;;;24.40;65.70;;;;;;5110273;27;43960;-70
2022/07/28 13:04:17;;;;;;;1.20;1.20;;;24.40;65.40;;;;;;5110402;27;43971;-71
2022/07/28 13:06:55;;;;;;;1.37;1.37;;;24.40;65.30;;;;;;5114823;27;43325;-70
2022/07/28 13:09:24;;;;;;;1.50;1.50;;;24.40;65.10;;;;;;5124229;27;43981;-69